Time;durP1;ratioP1;P1;durP2;ratioP2;P2;SDS_P1;SDS_P2;PMS_P1;PMS_P2;Temp;Humidity;BMP_temperature;BMP_pressure;BME280_temperature;BME280_humidity;BME280_pressure;Samples;Min_cycle;Max_cycle;Signal;HPM_P1;HPM_P2
2023/09/23 00:02:18;;;;;;;3.05;1.83;;;;;;;13.17;88.43;100615.97;7397947;19;19952;-63
2023/09/23 00:04:47;;;;;;;5.88;2.50;;;;;;;13.18;88.79;100627.63;7397654;19;19919;-63
2023/09/23 00:07:17;;;;;;;3.78;2.70;;;;;;;13.16;88.53;100629.69;7396287;19;19932;-63
2023/09/23 00:09:51;;;;;;;6.72;2.40;;;;;;;13.19;88.96;100629.31;7397222;19;20246;-63
2023/09/23 00:12:19;;;;;;;4.20;2.47;;;;;;;13.17;88.90;100628.66;7397481;19;19922;-63
2023/09/23 00:14:48;;;;;;;3.70;2.33;;;;;;;13.16;89.06;100619.69;7396672;19;19937;-63
2023/09/23 00:17:16;;;;;;;2.88;2.15;;;;;;;13.14;89.12;100626.34;7397538;19;19954;-63
2023/09/23 00:19:46;;;;;;;4.32;2.50;;;;;;;13.13;89.22;100636.34;7395695;19;20286;-63
2023/09/23 00:22:15;;;;;;;6.63;2.78;;;;;;;13.12;89.20;100640.06;7393613;19;19976;-63
2023/09/23 00:24:44;;;;;;;4.20;2.65;;;;;;;13.08;89.50;100643.34;7397241;19;19921;-63
2023/09/23 00:27:17;;;;;;;4.78;2.75;;;;;;;13.06;89.21;100640.00;7397730;19;20411;-63
2023/09/23 00:29:47;;;;;;;6.47;2.40;;;;;;;13.04;89.78;100647.47;7393913;19;19933;-63
2023/09/23 00:32:22;;;;;;;3.38;2.20;;;;;;;13.00;89.45;100640.78;7396127;19;19953;-63
2023/09/23 00:34:51;;;;;;;3.08;2.20;;;;;;;12.98;89.38;100648.28;7397551;19;19915;-63
2023/09/23 00:37:20;;;;;;;5.25;1.50;;;;;;;12.95;89.31;100649.50;7394241;19;19929;-63
2023/09/23 00:39:48;;;;;;;2.42;1.63;;;;;;;12.93;88.99;100646.19;7396257;19;19918;-63
2023/09/23 00:42:21;;;;;;;1.98;1.20;;;;;;;12.92;88.60;100649.91;7395233;19;19943;-63
2023/09/23 00:44:52;;;;;;;2.65;1.20;;;;;;;12.89;88.57;100653.00;7395894;19;19922;-63
2023/09/23 00:47:21;;;;;;;1.52;1.23;;;;;;;12.88;88.60;100653.19;7395454;19;20365;-63
2023/09/23 00:49:50;;;;;;;2.15;1.23;;;;;;;12.87;88.60;100665.88;7393988;19;19926;-63
2023/09/23 00:52:20;;;;;;;1.30;1.00;;;;;;;12.84;88.69;100654.63;7395078;19;20348;-63
2023/09/23 00:54:49;;;;;;;1.77;1.02;;;;;;;12.84;88.95;100662.75;7395599;19;20029;-63
2023/09/23 00:57:21;;;;;;;2.20;1.13;;;;;;;12.80;88.98;100666.88;7394551;19;19932;-63
2023/09/23 00:59:49;;;;;;;1.17;1.00;;;;;;;12.79;89.34;100670.59;7395571;19;20345;-63
2023/09/23 01:02:18;;;;;;;2.20;1.10;;;;;;;12.78;89.34;100677.88;7396660;19;19927;-63
2023/09/23 01:04:49;;;;;;;1.90;0.90;;;;;;;12.77;89.43;100675.38;7394939;19;19925;-63
2023/09/23 01:07:18;;;;;;;2.75;1.40;;;;;;;12.74;89.69;100680.13;7400604;19;19936;-63
2023/09/23 01:09:48;;;;;;;3.03;0.90;;;;;;;12.73;90.31;100685.72;7402168;19;19941;-63
2023/09/23 01:12:16;;;;;;;1.77;0.90;;;;;;;12.69;89.74;100687.97;7402296;19;19919;-63
2023/09/23 01:14:48;;;;;;;1.48;0.80;;;;;;;12.69;90.21;100690.69;7402156;19;19922;-63
2023/09/23 01:17:17;;;;;;;1.23;0.82;;;;;;;12.66;90.15;100688.38;7400364;19;19922;-63
2023/09/23 01:19:46;;;;;;;2.13;0.75;;;;;;;12.61;90.22;100685.44;7398790;19;19943;-64
2023/09/23 01:22:15;;;;;;;1.30;0.90;;;;;;;12.59;90.40;100692.91;7401439;19;19981;-64
2023/09/23 01:24:46;;;;;;;1.05;0.80;;;;;;;12.55;90.60;100686.22;7401874;19;19942;-63
2023/09/23 01:27:17;;;;;;;1.77;1.00;;;;;;;12.52;90.56;100697.41;7400218;19;20282;-63
2023/09/23 01:29:52;;;;;;;1.63;1.20;;;;;;;12.45;91.56;100707.31;7399775;19;19935;-63
2023/09/23 01:32:35;;;;;;;4.60;2.13;;;;;;;12.40;91.71;100704.34;7398899;19;19929;-63
2023/09/23 01:35:05;;;;;;;2.75;1.15;;;;;;;12.39;91.36;100708.06;7401738;19;19911;-62
2023/09/23 01:37:34;;;;;;;2.95;1.20;;;;;;;12.36;91.52;100702.22;7400418;19;19943;-63
2023/09/23 01:40:05;;;;;;;1.42;1.00;;;;;;;12.34;91.79;100709.69;7401768;19;19927;-63
2023/09/23 01:42:35;;;;;;;2.53;1.15;;;;;;;12.31;91.62;100704.66;7401324;19;19918;-62
2023/09/23 01:45:06;;;;;;;2.92;1.13;;;;;;;12.29;92.14;100721.09;7400784;19;19933;-63
2023/09/23 01:47:35;;;;;;;2.88;1.10;;;;;;;12.29;92.38;100721.09;7397195;19;19946;-63
2023/09/23 01:50:03;;;;;;;1.65;0.90;;;;;;;12.28;92.07;100712.13;7400828;19;19923;-63
2023/09/23 01:52:33;;;;;;;1.88;1.02;;;;;;;12.28;92.38;100719.41;7400526;19;19918;-63
2023/09/23 01:55:05;;;;;;;3.70;1.35;;;;;;;12.28;92.52;100722.94;7400621;19;19954;-63
2023/09/23 01:57:34;;;;;;;3.83;1.35;;;;;;;12.28;92.03;100712.13;7399917;19;19936;-63
2023/09/23 02:00:26;;;;;;;1.83;0.95;;;;;;;12.25;92.30;100717.09;7398773;19;19958;-63
2023/09/23 02:02:55;;;;;;;1.08;0.77;;;;;;;12.23;92.34;100732.63;7400713;19;20260;-63
2023/09/23 02:05:27;;;;;;;1.95;0.68;;;;;;;12.22;92.66;100726.41;7400864;19;20380;-63
2023/09/23 02:07:56;;;;;;;1.77;0.80;;;;;;;12.22;92.34;100734.50;7400112;19;19931;-63
2023/09/23 02:10:28;;;;;;;1.35;0.68;;;;;;;12.23;92.64;100729.94;7400849;19;19923;-63
2023/09/23 02:12:57;;;;;;;2.08;1.02;;;;;;;12.22;92.29;100731.78;7400311;19;19919;-63
2023/09/23 02:15:26;;;;;;;1.50;0.60;;;;;;;12.23;92.44;100740.75;7397278;19;20548;-63
2023/09/23 02:17:54;;;;;;;2.53;0.57;;;;;;;12.23;93.20;100743.44;7398227;19;19919;-63
2023/09/23 02:20:23;;;;;;;1.73;0.85;;;;;;;12.22;92.55;100748.00;7401003;19;19946;-63
2023/09/23 02:22:55;;;;;;;2.17;0.60;;;;;;;12.22;92.51;100750.69;7400662;19;19911;-63
2023/09/23 02:25:27;;;;;;;1.80;0.95;;;;;;;12.19;92.81;100739.44;7400532;19;20273;-63
2023/09/23 02:27:57;;;;;;;2.22;0.80;;;;;;;12.17;93.23;100753.13;7401216;19;20307;-63
2023/09/23 02:30:26;;;;;;;1.98;1.00;;;;;;;12.18;93.36;100753.97;7398050;19;19922;-63
2023/09/23 02:32:54;;;;;;;1.33;0.70;;;;;;;12.16;93.25;100756.03;7399921;19;20358;-63
2023/09/23 02:35:25;;;;;;;2.03;1.00;;;;;;;12.13;92.83;100765.34;7399855;19;19938;-63
2023/09/23 02:37:54;;;;;;;1.83;0.82;;;;;;;12.12;93.24;100770.97;7400273;19;19926;-63
2023/09/23 02:40:27;;;;;;;2.40;0.60;;;;;;;12.10;93.27;100771.13;7399672;19;20396;-63
2023/09/23 02:42:59;;;;;;;1.75;0.52;;;;;;;12.10;93.17;100773.00;7399507;19;19924;-63
2023/09/23 02:45:28;;;;;;;0.65;0.50;;;;;;;12.08;92.85;100777.75;7397942;19;20283;-63
2023/09/23 02:47:58;;;;;;;0.82;0.50;;;;;;;12.06;93.02;100779.81;7399472;19;19923;-63
2023/09/23 02:50:26;;;;;;;1.85;1.30;;;;;;;12.04;92.88;100793.47;7400611;19;19927;-63
2023/09/23 02:52:56;;;;;;;0.40;0.30;;;;;;;12.04;92.99;100793.47;7399439;19;19918;-63
2023/09/23 02:55:25;;;;;;;0.77;0.60;;;;;;;12.03;93.12;100778.31;7399940;19;19943;-63
2023/09/23 02:57:55;;;;;;;0.57;0.50;;;;;;;12.02;92.67;100789.31;7399768;19;19967;-63
2023/09/23 03:00:29;;;;;;;0.88;0.38;;;;;;;12.01;92.80;100784.94;7399574;19;20278;-63
2023/09/23 03:03:02;;;;;;;1.08;0.50;;;;;;;11.99;92.89;100782.44;7399340;19;20287;-63
2023/09/23 03:05:34;;;;;;;0.40;0.40;;;;;;;12.00;92.91;100783.25;7399605;19;19922;-63
2023/09/23 03:08:02;;;;;;;0.80;0.50;;;;;;;12.00;93.19;100791.34;7399610;19;19919;-63
2023/09/23 03:10:39;;;;;;;1.92;0.60;;;;;;;12.00;93.44;100791.34;7400183;19;19943;-63
2023/09/23 03:13:10;;;;;;;1.83;0.98;;;;;;;12.00;93.40;100800.28;7395020;19;19919;-63
2023/09/23 03:15:44;;;;;;;1.13;0.63;;;;;;;11.99;93.63;100795.09;7399374;19;19919;-63
2023/09/23 03:18:14;;;;;;;2.95;0.88;;;;;;;12.00;93.56;100799.44;7399335;19;19918;-63
2023/09/23 03:20:43;;;;;;;2.28;0.93;;;;;;;12.00;93.47;100797.59;7398654;19;19923;-63
2023/09/23 03:23:12;;;;;;;1.10;0.80;;;;;;;11.98;93.25;100796.94;7398731;19;19923;-63
2023/09/23 03:25:48;;;;;;;3.67;0.90;;;;;;;11.96;93.49;100790.88;7398846;19;19919;-64
2023/09/23 03:28:18;;;;;;;1.55;1.17;;;;;;;11.95;93.60;100794.59;7398047;19;19951;-63
2023/09/23 03:30:50;;;;;;;2.78;1.33;;;;;;;11.93;93.78;100790.44;7394878;19;19930;-63
2023/09/23 03:33:18;;;;;;;;;;;;;;;11.78;94.42;100795.81;7402134;19;20353;-63
2023/09/23 03:35:47;;;;;;;1.55;1.08;;;;;;;11.87;93.47;100796.56;7398913;19;20413;-63
2023/09/23 03:38:15;;;;;;;1.67;1.33;;;;;;;11.85;93.16;100801.31;7397939;19;20345;-63
2023/09/23 03:40:51;;;;;;;2.58;1.30;;;;;;;11.81;92.89;100796.31;7395421;19;19927;-63
2023/09/23 03:43:20;;;;;;;2.45;1.27;;;;;;;11.81;92.90;100800.88;7397675;19;19955;-63
2023/09/23 03:45:52;;;;;;;2.70;1.38;;;;;;;11.79;92.92;100803.75;7398625;19;19919;-64
2023/09/23 03:48:20;;;;;;;2.83;1.70;;;;;;;11.76;92.63;100804.13;7397194;19;19914;-63
2023/09/23 03:50:53;;;;;;;4.00;1.77;;;;;;;11.73;92.86;100809.91;7398359;19;19951;-63
2023/09/23 03:53:23;;;;;;;4.07;1.58;;;;;;;11.72;92.62;100818.19;7398337;19;20365;-64
2023/09/23 03:55:54;;;;;;;3.28;1.80;;;;;;;11.69;92.74;100827.44;7397982;19;19922;-64
2023/09/23 03:58:24;;;;;;;5.75;2.35;;;;;;;11.67;92.75;100825.94;7398394;19;19978;-61
2023/09/23 04:00:56;;;;;;;5.32;2.08;;;;;;;11.64;92.86;100826.34;7397226;19;19923;-62
2023/09/23 04:03:25;;;;;;;3.63;1.90;;;;;;;11.60;93.07;100839.38;7397919;19;20359;-62
2023/09/23 04:05:57;;;;;;;4.28;1.92;;;;;;;11.57;93.09;100833.47;7396751;19;19925;-62
2023/09/23 04:08:26;;;;;;;3.25;1.92;;;;;;;11.54;93.09;100842.78;7395976;19;20344;-62
2023/09/23 04:10:55;;;;;;;2.50;1.80;;;;;;;11.53;92.86;100838.41;7392460;19;19947;-62
2023/09/23 04:13:25;;;;;;;5.03;2.15;;;;;;;11.50;93.12;100846.88;7397960;19;19967;-62
2023/09/23 04:16:00;;;;;;;4.50;2.30;;;;;;;11.47;93.16;100849.94;7397253;19;19925;-62
2023/09/23 04:18:29;;;;;;;4.32;2.00;;;;;;;11.43;93.35;100848.63;7396360;19;19926;-62
2023/09/23 04:20:57;;;;;;;5.63;1.98;;;;;;;11.41;93.29;100857.91;7397064;19;19914;-62
2023/09/23 04:23:26;;;;;;;5.10;2.22;;;;;;;11.37;93.49;100858.28;7396375;19;19923;-61
2023/09/23 04:25:55;;;;;;;4.32;2.17;;;;;;;11.34;93.35;100855.13;7397402;19;19933;-61
2023/09/23 04:28:45;;;;;;;4.25;2.15;;;;;;;11.31;93.37;100852.78;7390534;19;19926;-62
2023/09/23 04:31:18;;;;;;;5.03;2.42;;;;;;;11.30;93.45;100864.59;7394958;19;19918;-62
2023/09/23 04:33:47;;;;;;;4.65;2.72;;;;;;;11.29;93.54;100865.63;7397080;19;19930;-62
2023/09/23 04:36:16;;;;;;;4.40;2.35;;;;;;;11.27;93.63;100873.03;7396304;19;19914;-62
2023/09/23 04:38:45;;;;;;;3.88;2.10;;;;;;;11.25;93.44;100869.69;7392767;19;20345;-61
2023/09/23 04:41:14;;;;;;;3.78;2.42;;;;;;;11.22;93.55;100884.38;7399279;19;19943;-62
2023/09/23 04:43:42;;;;;;;4.57;2.10;;;;;;;11.20;93.62;100880.19;7402373;19;19918;-61
2023/09/23 04:46:14;;;;;;;3.47;2.40;;;;;;;11.16;93.67;100887.78;7401314;19;19951;-61
2023/09/23 04:48:45;;;;;;;4.35;2.33;;;;;;;11.12;93.58;100880.25;7402168;19;19937;-61
2023/09/23 04:51:14;;;;;;;3.95;2.33;;;;;;;11.08;93.88;100890.56;7402109;19;19982;-61
2023/09/23 04:53:43;;;;;;;4.40;2.40;;;;;;;11.05;94.04;100890.06;7401404;19;19918;-61
2023/09/23 04:56:16;;;;;;;3.95;3.00;;;;;;;11.01;94.18;100894.97;7402216;19;20384;-61
2023/09/23 04:58:45;;;;;;;5.43;2.65;;;;;;;10.96;94.19;100897.34;7399920;19;19919;-61
2023/09/23 05:01:15;;;;;;;4.57;3.20;;;;;;;10.92;94.32;100891.50;7400775;19;19950;-61
2023/09/23 05:03:46;;;;;;;4.95;3.78;;;;;;;10.89;94.68;100896.41;7401942;19;19918;-61
2023/09/23 05:06:15;;;;;;;4.68;3.20;;;;;;;10.85;95.19;100897.78;7398101;19;19937;-62
2023/09/23 05:08:44;;;;;;;5.95;3.53;;;;;;;10.83;95.12;100906.03;7401191;19;19918;-61
2023/09/23 05:11:12;;;;;;;5.10;3.20;;;;;;;10.82;95.04;100909.78;7401925;19;19951;-63
2023/09/23 05:13:41;;;;;;;8.88;4.32;;;;;;;10.80;95.14;100911.78;7401253;19;20035;-62
2023/09/23 05:16:10;;;;;;;5.47;3.25;;;;;;;10.80;95.04;100914.47;7400608;19;20373;-62
2023/09/23 05:18:38;;;;;;;6.32;3.38;;;;;;;10.80;94.60;100911.78;7402684;19;19943;-62
2023/09/23 05:21:10;;;;;;;5.22;3.72;;;;;;;10.80;94.77;100916.34;7402223;19;19918;-61
2023/09/23 05:23:40;;;;;;;5.63;3.45;;;;;;;10.79;94.94;100914.66;7402554;19;19919;-61
2023/09/23 05:26:09;;;;;;;6.53;3.72;;;;;;;10.78;94.60;100919.22;7401481;19;19922;-62
2023/09/23 05:28:37;;;;;;;6.65;4.00;;;;;;;10.77;94.70;100925.63;7400876;19;20370;-62
2023/09/23 05:31:06;;;;;;;5.18;4.45;;;;;;;10.76;95.08;100929.31;7399884;19;19947;-63
2023/09/23 05:33:35;;;;;;;5.65;3.40;;;;;;;10.78;94.79;100938.09;7401804;19;19922;-63
2023/09/23 05:36:04;;;;;;;6.65;3.50;;;;;;;10.80;94.62;100936.03;7398268;19;19931;-62
2023/09/23 05:38:36;;;;;;;7.13;4.00;;;;;;;10.79;94.57;100942.44;7400618;19;20881;-62
2023/09/23 05:41:05;;;;;;;6.13;3.75;;;;;;;10.78;94.49;100948.88;7401589;19;19978;-62
2023/09/23 05:43:33;;;;;;;6.50;4.20;;;;;;;10.76;94.76;100955.44;7401023;19;19922;-62
2023/09/23 05:46:07;;;;;;;7.78;4.35;;;;;;;10.74;94.91;100963.69;7398955;19;19918;-62
2023/09/23 05:48:35;;;;;;;5.32;3.83;;;;;;;10.76;94.90;100966.22;7400462;19;19974;-62
2023/09/23 05:51:07;;;;;;;9.05;4.28;;;;;;;10.78;94.89;100962.34;7399457;19;20333;-62
2023/09/23 05:53:38;;;;;;;6.15;4.63;;;;;;;10.82;95.16;100971.75;7398993;19;19918;-62
2023/09/23 05:56:08;;;;;;;7.80;4.40;;;;;;;10.84;95.15;100975.09;7401018;19;19923;-62
2023/09/23 05:58:36;;;;;;;7.15;4.38;;;;;;;10.86;94.54;100986.56;7401344;19;19922;-62
2023/09/23 06:01:05;;;;;;;6.60;4.63;;;;;;;10.90;94.77;100990.56;7400589;19;19948;-62
2023/09/23 06:03:34;;;;;;;7.80;4.40;;;;;;;10.95;95.05;100997.28;7397542;19;19934;-62
2023/09/23 06:06:02;;;;;;;8.25;5.28;;;;;;;10.98;94.67;100994.22;7400094;19;19918;-62
2023/09/23 06:08:31;;;;;;;7.75;4.78;;;;;;;10.99;94.44;100987.84;7401548;19;19911;-62
2023/09/23 06:11:07;;;;;;;8.20;5.15;;;;;;;11.01;94.57;101000.09;7400296;19;19944;-62
2023/09/23 06:13:36;;;;;;;6.13;4.53;;;;;;;11.02;94.45;100998.25;7400927;19;19922;-62
2023/09/23 06:16:06;;;;;;;9.35;4.78;;;;;;;11.03;94.21;100992.69;7400176;19;20400;-63
2023/09/23 06:18:35;;;;;;;7.15;3.97;;;;;;;11.05;94.75;101009.50;7400511;19;19926;-63
2023/09/23 06:21:06;;;;;;;8.20;5.03;;;;;;;11.05;94.81;101017.59;7400133;19;20304;-63
2023/09/23 06:23:34;;;;;;;8.32;5.68;;;;;;;11.05;94.71;101019.47;7400430;19;19925;-62
2023/09/23 06:26:06;;;;;;;7.35;4.80;;;;;;;11.04;94.86;101023.19;7401176;19;19918;-63
2023/09/23 06:28:35;;;;;;;9.18;5.25;;;;;;;11.03;94.92;101026.91;7399943;19;20268;-62
2023/09/23 06:31:04;;;;;;;8.57;5.40;;;;;;;11.04;94.77;101037.50;7397954;19;19926;-62
2023/09/23 06:33:33;;;;;;;10.98;6.20;;;;;;;11.06;94.78;101037.31;7398772;19;19948;-62
2023/09/23 06:36:05;;;;;;;10.73;5.65;;;;;;;11.06;94.85;101040.84;7399975;19;19934;-63
2023/09/23 06:38:34;;;;;;;9.35;6.68;;;;;;;11.05;95.03;101041.88;7398516;19;19943;-62
2023/09/23 06:41:06;;;;;;;12.50;6.95;;;;;;;11.07;94.82;101050.63;7399967;19;19918;-62
2023/09/23 06:43:54;;;;;;;11.18;7.18;;;;;;;11.10;94.84;101055.66;7398570;19;19919;-62
2023/09/23 06:46:23;;;;;;;11.88;7.18;;;;;;;11.16;94.87;101059.53;7401147;19;19918;-62
2023/09/23 06:48:52;;;;;;;13.65;8.13;;;;;;;11.23;94.83;101065.88;7399712;19;19915;-62
2023/09/23 06:51:20;;;;;;;14.20;8.48;;;;;;;11.30;94.48;101066.88;7399704;19;19922;-62
2023/09/23 06:54:09;;;;;;;15.18;9.02;;;;;;;11.36;94.42;101074.25;7398338;19;19986;-61
2023/09/23 06:56:41;;;;;;;14.63;7.70;;;;;;;11.42;94.05;101075.41;7400024;19;19927;-63
2023/09/23 06:59:10;;;;;;;16.23;8.63;;;;;;;11.48;94.33;101088.16;7400472;19;19951;-62
2023/09/23 07:01:39;;;;;;;16.88;8.98;;;;;;;11.50;94.30;101094.22;7395081;19;19923;-62
2023/09/23 07:04:08;;;;;;;13.32;8.40;;;;;;;11.47;94.29;101090.03;7398912;19;19915;-62
2023/09/23 07:06:37;;;;;;;15.25;9.38;;;;;;;11.48;94.49;101089.00;7399904;19;19919;-63
2023/09/23 07:09:07;;;;;;;14.32;9.13;;;;;;;11.51;94.03;101090.53;7399770;19;19978;-63
2023/09/23 07:11:36;;;;;;;16.98;10.07;;;;;;;11.54;93.92;101106.34;7399311;19;19926;-63
2023/09/23 07:14:07;;;;;;;18.23;10.50;;;;;;;11.58;93.94;101105.81;7399297;19;19922;-63
2023/09/23 07:16:36;;;;;;;16.13;10.75;;;;;;;11.61;93.89;101102.75;7399423;19;19914;-62
2023/09/23 07:19:04;;;;;;;17.75;9.82;;;;;;;11.65;93.90;101108.66;7397803;19;20319;-62
2023/09/23 07:21:33;;;;;;;19.13;9.57;;;;;;;11.67;94.02;101110.16;7398851;19;19943;-62
2023/09/23 07:24:01;;;;;;;16.75;9.82;;;;;;;11.69;93.87;101121.59;7400278;19;20236;-63
2023/09/23 07:26:30;;;;;;;17.15;10.35;;;;;;;11.73;93.53;101119.44;7399221;19;20266;-62
2023/09/23 07:28:59;;;;;;;16.13;9.55;;;;;;;11.76;93.57;101122.59;7397891;19;19943;-62
2023/09/23 07:31:50;;;;;;;17.17;11.13;;;;;;;11.81;93.88;101122.06;7396686;19;19918;-62
2023/09/23 07:34:18;;;;;;;15.88;10.20;;;;;;;11.83;93.72;101128.97;7398457;19;19947;-64
2023/09/23 07:36:47;;;;;;;17.83;11.13;;;;;;;11.88;93.54;101125.72;7397146;19;19930;-62
2023/09/23 07:39:16;;;;;;;15.85;9.35;;;;;;;11.89;93.67;101130.13;7397994;19;20280;-63
2023/09/23 07:41:44;;;;;;;18.95;11.00;;;;;;;11.94;93.35;101134.97;7398337;19;19926;-63
2023/09/23 07:44:13;;;;;;;17.85;10.27;;;;;;;12.00;93.24;101137.78;7396853;19;20034;-62
2023/09/23 07:46:42;;;;;;;18.23;10.60;;;;;;;12.08;93.00;101145.81;7397748;19;19922;-62
2023/09/23 07:49:13;;;;;;;18.10;11.52;;;;;;;12.14;92.99;101134.31;7397305;19;19950;-62
2023/09/23 07:51:43;;;;;;;17.40;10.43;;;;;;;12.23;92.60;101143.19;7397816;19;19922;-62
2023/09/23 07:54:12;;;;;;;18.95;10.70;;;;;;;12.32;92.32;101136.69;7397554;19;19927;-63
2023/09/23 07:56:41;;;;;;;18.00;10.85;;;;;;;12.41;92.26;101149.13;7395391;19;19923;-64
2023/09/23 07:59:10;;;;;;;17.90;10.23;;;;;;;12.45;91.59;101147.75;7391823;19;20448;-63
2023/09/23 08:01:38;;;;;;;18.95;10.43;;;;;;;12.52;91.56;101145.97;7397922;19;19923;-63
2023/09/23 08:04:07;;;;;;;17.85;10.73;;;;;;;12.60;91.88;101164.81;7397049;19;19929;-62
2023/09/23 08:06:38;;;;;;;17.52;10.15;;;;;;;12.69;91.62;101152.91;7397120;19;19957;-63
2023/09/23 08:09:08;;;;;;;15.55;10.93;;;;;;;12.77;91.37;101162.78;7397347;19;20431;-62
2023/09/23 08:11:37;;;;;;;15.35;9.70;;;;;;;12.81;91.08;101160.59;7398174;19;19923;-62
2023/09/23 08:14:06;;;;;;;17.00;9.85;;;;;;;12.85;91.77;101164.59;7396773;19;19922;-63
2023/09/23 08:16:35;;;;;;;17.10;11.18;;;;;;;12.91;91.61;101161.13;7401140;19;19915;-63
2023/09/23 08:19:03;;;;;;;16.90;10.05;;;;;;;12.93;90.99;101164.50;7402899;19;19918;-63
2023/09/23 08:21:32;;;;;;;15.93;10.43;;;;;;;12.91;91.17;101175.50;7401623;19;19925;-62
2023/09/23 08:24:03;;;;;;;16.13;10.55;;;;;;;12.96;91.19;101164.97;7403080;19;19939;-63
2023/09/23 08:26:32;;;;;;;15.48;9.80;;;;;;;13.00;91.21;101173.53;7399715;19;19922;-62
2023/09/23 08:29:00;;;;;;;16.17;10.05;;;;;;;13.05;91.04;101179.25;7399080;19;19941;-63
2023/09/23 08:31:29;;;;;;;18.58;10.43;;;;;;;13.14;90.91;101187.13;7401721;19;20344;-63
2023/09/23 08:34:19;;;;;;;15.38;10.23;;;;;;;13.12;90.78;101182.91;7400972;19;19918;-64
2023/09/23 08:36:47;;;;;;;14.40;8.55;;;;;;;13.12;90.20;101177.50;7402512;19;19929;-63
2023/09/23 08:39:19;;;;;;;14.63;9.88;;;;;;;13.15;90.26;101179.84;7401741;19;19945;-62
2023/09/23 08:41:53;;;;;;;15.80;9.23;;;;;;;13.24;90.49;101184.16;7402208;19;19919;-63
2023/09/23 08:44:24;;;;;;;13.50;9.05;;;;;;;13.35;90.28;101190.94;7402247;19;20511;-62
2023/09/23 08:46:54;;;;;;;17.08;9.85;;;;;;;13.37;90.16;101195.16;7401113;19;19926;-63
2023/09/23 08:49:24;;;;;;;16.48;10.55;;;;;;;13.37;89.76;101205.97;7402814;19;19954;-63
2023/09/23 08:51:57;;;;;;;13.63;9.18;;;;;;;13.40;90.16;101191.22;7402847;19;19915;-63
2023/09/23 08:54:28;;;;;;;15.57;9.60;;;;;;;13.45;89.71;101191.50;7401251;19;20289;-63
2023/09/23 08:56:59;;;;;;;12.90;8.15;;;;;;;13.50;89.94;101195.31;7398613;19;19929;-62
2023/09/23 08:59:29;;;;;;;11.02;7.43;;;;;;;13.56;89.59;101199.97;7402335;19;19923;-63
2023/09/23 09:02:19;;;;;;;13.27;7.82;;;;;;;13.63;89.17;101192.78;7400111;19;20345;-63
2023/09/23 09:04:47;;;;;;;16.95;8.25;;;;;;;13.73;88.49;101205.19;7401153;19;19919;-62
2023/09/23 09:07:37;;;;;;;15.45;8.65;;;;;;;13.80;88.12;101198.00;7399932;19;19952;-62
2023/09/23 09:10:09;;;;;;;10.07;7.05;;;;;;;13.87;87.80;101204.31;7402176;19;20345;-62
2023/09/23 09:12:38;;;;;;;11.68;7.18;;;;;;;13.97;87.81;101202.16;7400566;19;20379;-62
2023/09/23 09:15:07;;;;;;;13.05;7.32;;;;;;;14.04;87.89;101201.19;7401957;19;19930;-62
2023/09/23 09:17:36;;;;;;;12.45;7.82;;;;;;;14.23;87.36;101217.88;7400464;19;19914;-62
2023/09/23 09:20:08;;;;;;;10.50;6.95;;;;;;;14.43;86.14;101208.94;7401126;19;20289;-62
2023/09/23 09:22:37;;;;;;;10.35;7.13;;;;;;;14.59;85.78;101202.38;7401520;19;19923;-62
2023/09/23 09:25:11;;;;;;;13.35;6.93;;;;;;;14.76;85.74;101211.09;7400290;19;19927;-62
2023/09/23 09:27:41;;;;;;;11.50;6.85;;;;;;;14.93;84.19;101209.75;7396295;19;19932;-62
2023/09/23 09:30:12;;;;;;;9.88;6.55;;;;;;;14.97;84.18;101220.03;7401316;19;19938;-61
2023/09/23 09:32:44;;;;;;;10.13;7.38;;;;;;;15.08;83.81;101215.09;7401168;19;19924;-62
2023/09/23 09:35:15;;;;;;;;;;;;;;;15.15;84.58;101219.53;7402788;19;20752;-62
2023/09/23 09:37:46;;;;;;;10.07;6.38;;;;;;;15.28;83.21;101230.47;7400302;19;19918;-62
2023/09/23 09:40:21;;;;;;;10.73;6.43;;;;;;;15.23;82.33;101232.94;7400262;19;19930;-63
2023/09/23 09:43:10;;;;;;;8.48;5.57;;;;;;;15.11;83.28;101234.53;7399753;19;19926;-62
2023/09/23 09:45:42;;;;;;;7.95;5.35;;;;;;;15.19;83.15;101236.25;7399897;19;19919;-62
2023/09/23 09:48:12;;;;;;;8.60;6.13;;;;;;;15.25;83.69;101230.88;7400003;19;19986;-62
2023/09/23 09:50:41;;;;;;;10.43;6.05;;;;;;;15.23;84.00;101241.09;7399909;19;19922;-62
2023/09/23 09:53:10;;;;;;;8.85;5.82;;;;;;;15.20;83.78;101248.78;7400981;19;20336;-62
2023/09/23 09:55:42;;;;;;;8.27;5.63;;;;;;;15.13;83.87;101247.91;7397848;19;20322;-62
2023/09/23 09:58:11;;;;;;;12.07;5.93;;;;;;;15.10;83.52;101248.31;7399790;19;19926;-62
2023/09/23 10:00:42;;;;;;;7.75;4.65;;;;;;;15.14;83.41;101250.44;7401336;19;19918;-62
2023/09/23 10:03:13;;;;;;;9.38;4.57;;;;;;;15.34;81.78;101256.00;7399933;19;19925;-62
2023/09/23 10:05:46;;;;;;;6.50;4.25;;;;;;;15.61;81.61;101259.75;7400894;19;20323;-62
2023/09/23 10:08:16;;;;;;;7.13;4.18;;;;;;;15.76;81.06;101255.00;7399734;19;20298;-63
2023/09/23 10:10:52;;;;;;;7.60;4.55;;;;;;;15.87;79.20;101260.72;7399830;19;19928;-62
2023/09/23 10:13:24;;;;;;;5.65;3.47;;;;;;;16.02;78.67;101260.56;7400121;19;19951;-62
2023/09/23 10:15:52;;;;;;;4.80;3.90;;;;;;;16.06;79.17;101267.28;7398387;19;19923;-63
2023/09/23 10:18:22;;;;;;;5.10;3.58;;;;;;;16.12;79.27;101277.34;7400321;19;19974;-62
2023/09/23 10:20:54;;;;;;;5.10;3.60;;;;;;;16.29;78.38;101273.22;7399635;19;20034;-62
2023/09/23 10:23:24;;;;;;;7.45;3.92;;;;;;;16.21;78.53;101278.84;7399921;19;19918;-62
2023/09/23 10:25:55;;;;;;;7.30;3.70;;;;;;;16.23;78.87;101286.78;7397221;19;19931;-62
2023/09/23 10:28:28;;;;;;;5.60;3.53;;;;;;;16.29;78.32;101289.53;7399318;19;19922;-62
2023/09/23 10:31:16;;;;;;;7.93;3.47;;;;;;;16.40;77.73;101298.97;7398693;19;19942;-62
2023/09/23 10:33:45;;;;;;;6.72;3.42;;;;;;;16.50;76.54;101318.47;7399778;19;19954;-62
2023/09/23 10:36:22;;;;;;;6.10;4.13;;;;;;;16.62;75.00;101305.13;7398354;19;19985;-63
2023/09/23 10:39:17;;;;;;;6.95;4.00;;;;;;;16.77;76.33;101308.50;7394703;19;19918;-62
2023/09/23 10:41:48;;;;;;;6.63;3.40;;;;;;;16.68;75.38;101315.19;7399746;19;19939;-62
2023/09/23 10:44:37;;;;;;;8.05;3.42;;;;;;;16.66;76.64;101307.22;7397700;19;20010;-62
2023/09/23 10:47:06;;;;;;;5.80;3.78;;;;;;;16.87;75.65;101322.53;7399395;19;20223;-62
2023/09/23 10:49:35;;;;;;;5.90;4.10;;;;;;;16.71;77.02;101331.09;7398969;19;19947;-63
2023/09/23 10:52:04;;;;;;;4.97;3.00;;;;;;;16.56;77.26;101338.56;7400104;19;19919;-63
2023/09/23 10:54:33;;;;;;;3.95;2.95;;;;;;;16.44;77.44;101338.28;7399334;19;19922;-62
2023/09/23 10:57:04;;;;;;;3.67;3.20;;;;;;;16.34;77.15;101336.00;7393567;19;19959;-62
2023/09/23 10:59:33;;;;;;;5.25;3.47;;;;;;;16.33;77.93;101339.75;7398532;19;20649;-62
2023/09/23 11:02:04;;;;;;;4.97;3.08;;;;;;;16.43;77.21;101344.81;7397708;19;20262;-62
2023/09/23 11:04:32;;;;;;;7.03;3.28;;;;;;;16.44;77.54;101343.75;7399282;19;20360;-62
2023/09/23 11:07:02;;;;;;;4.55;2.50;;;;;;;16.87;76.84;101336.13;7398155;19;20345;-63
2023/09/23 11:09:31;;;;;;;5.22;3.33;;;;;;;17.21;75.82;101335.16;7398112;19;19921;-64
2023/09/23 11:12:13;;;;;;;5.35;2.97;;;;;;;17.49;73.39;101351.25;7398473;19;19930;-62
2023/09/23 11:14:44;;;;;;;4.30;2.20;;;;;;;17.47;74.17;101354.22;7399096;19;19922;-63
2023/09/23 11:17:23;;;;;;;;;;;;;;;17.58;72.21;101345.44;7400961;19;19937;-64
2023/09/23 11:19:56;;;;;;;4.95;2.50;;;;;;;17.81;71.94;101338.69;7398206;19;19918;-62
2023/09/23 11:22:26;;;;;;;6.97;2.70;;;;;;;17.87;73.21;101337.81;7399313;19;20569;-63
2023/09/23 11:24:56;;;;;;;2.85;1.85;;;;;;;17.87;72.78;101346.84;7397628;19;19922;-63
2023/09/23 11:27:30;;;;;;;3.00;1.90;;;;;;;17.58;71.56;101350.88;7396460;19;19914;-63
2023/09/23 11:29:59;;;;;;;5.93;1.85;;;;;;;17.36;73.44;101351.28;7398567;19;19952;-63
2023/09/23 11:32:28;;;;;;;6.45;2.00;;;;;;;17.18;74.27;101360.91;7398246;19;20343;-63
2023/09/23 11:34:57;;;;;;;4.05;2.20;;;;;;;16.95;74.19;101392.28;7396113;19;19923;-63
2023/09/23 11:37:27;;;;;;;3.58;1.52;;;;;;;16.73;73.60;101386.16;7398219;19;19943;-63
2023/09/23 11:39:56;;;;;;;4.60;2.00;;;;;;;16.59;74.82;101389.88;7398074;19;19926;-64